createdAt,value
2019-05-05T00:00:58.859Z,6.70
2019-05-05T00:03:40.625Z,8.10
2019-05-05T00:06:07.702Z,8.55
2019-05-05T00:08:35.439Z,7.70
2019-05-05T00:11:12.097Z,7.20
2019-05-05T00:13:44.817Z,8.23
2019-05-05T00:16:26.247Z,8.97
2019-05-05T00:18:54.291Z,10.63
2019-05-05T00:21:24.305Z,7.80
2019-05-05T00:23:51.911Z,11.47
2019-05-05T00:26:19.260Z,14.23
2019-05-05T00:28:46.614Z,7.80
2019-05-05T00:31:15.145Z,9.05
2019-05-05T00:33:44.816Z,8.60
2019-05-05T00:36:14.534Z,9.70
2019-05-05T00:38:44.114Z,7.10
2019-05-05T00:41:11.883Z,8.65
2019-05-05T00:43:39.751Z,6.03
2019-05-05T00:46:14.826Z,10.20
2019-05-05T00:48:44.509Z,9.37
2019-05-05T00:51:12.160Z,8.23
2019-05-05T00:53:39.303Z,10.00
2019-05-05T00:56:06.277Z,7.37
2019-05-05T00:58:35.295Z,10.70
2019-05-05T01:01:22.143Z,7.73
2019-05-05T01:03:48.785Z,7.90
2019-05-05T01:06:25.539Z,9.10
2019-05-05T01:08:54.988Z,8.10
2019-05-05T01:11:22.085Z,7.50
2019-05-05T01:13:49.063Z,7.25
2019-05-05T01:16:16.011Z,8.35
2019-05-05T01:18:45.060Z,6.58
2019-05-05T01:21:11.907Z,10.28
2019-05-05T01:23:38.526Z,11.33
2019-05-05T01:26:05.315Z,10.65
2019-05-05T01:28:32.315Z,9.73
2019-05-05T01:31:02.203Z,8.10
2019-05-05T01:33:44.922Z,10.58
2019-05-05T01:36:11.982Z,9.25
2019-05-05T01:38:45.875Z,8.08
2019-05-05T01:41:22.994Z,9.48
2019-05-05T01:43:49.638Z,7.45
2019-05-05T01:46:16.255Z,8.50
2019-05-05T01:48:44.504Z,6.47
2019-05-05T01:51:11.375Z,10.23
2019-05-05T01:53:38.005Z,19.00
2019-05-05T01:56:04.995Z,9.40
2019-05-05T01:58:31.775Z,7.00
2019-05-05T02:00:58.399Z,9.13
2019-05-05T02:03:25.351Z,7.70
2019-05-05T02:05:52.082Z,10.13
2019-05-05T02:08:20.507Z,7.00
2019-05-05T02:10:48.355Z,8.75
2019-05-05T02:13:16.146Z,8.20
2019-05-05T02:15:44.603Z,7.40
2019-05-05T02:18:14.806Z,9.15
2019-05-05T02:20:44.905Z,8.55
2019-05-05T02:23:15.127Z,7.37
2019-05-05T02:25:44.789Z,12.93
2019-05-05T02:28:11.611Z,8.75
2019-05-05T02:30:46.497Z,10.68
2019-05-05T02:33:15.651Z,7.30
2019-05-05T02:35:45.605Z,8.75
2019-05-05T02:38:11.373Z,7.65
2019-05-05T02:40:38.199Z,7.90
2019-05-05T02:43:05.643Z,10.05
2019-05-05T02:45:36.440Z,8.18
2019-05-05T02:48:14.881Z,8.68
2019-05-05T02:51:01.159Z,11.30
2019-05-05T02:53:26.327Z,10.68
2019-05-05T02:55:55.455Z,6.10
2019-05-05T02:58:24.458Z,9.68
2019-05-05T03:01:13.971Z,8.85
2019-05-05T03:03:43.815Z,8.28
2019-05-05T03:06:10.663Z,8.90
2019-05-05T03:08:38.223Z,8.48
2019-05-05T03:11:05.376Z,10.18
2019-05-05T03:13:33.743Z,7.17
2019-05-05T03:16:14.687Z,10.85
2019-05-05T03:18:41.304Z,12.20
2019-05-05T03:21:08.034Z,8.73
2019-05-05T03:23:35.395Z,8.78
2019-05-05T03:26:03.819Z,6.97
2019-05-05T03:28:40.655Z,9.28
2019-05-05T03:31:07.600Z,8.28
2019-05-05T03:33:35.168Z,9.13
2019-05-05T03:36:03.852Z,10.43
2019-05-05T03:38:31.294Z,7.85
2019-05-05T03:40:59.372Z,7.47
2019-05-05T03:43:29.928Z,8.43
2019-05-05T03:46:04.301Z,12.40
2019-05-05T03:48:31.978Z,7.97
2019-05-05T03:50:59.178Z,9.15
2019-05-05T03:53:26.378Z,11.88
2019-05-05T03:55:55.774Z,6.83
2019-05-05T03:58:24.067Z,8.60
2019-05-05T04:01:10.710Z,6.75
2019-05-05T04:03:37.607Z,8.95
2019-05-05T04:06:06.483Z,15.55
2019-05-05T04:08:33.862Z,11.53
2019-05-05T04:11:03.912Z,7.33
2019-05-05T04:13:34.545Z,7.67
2019-05-05T04:16:30.323Z,7.75
2019-05-05T04:19:03.451Z,9.13
2019-05-05T04:21:33.797Z,7.87
2019-05-05T04:23:59.347Z,8.63
2019-05-05T04:26:26.295Z,7.75
2019-05-05T04:28:54.162Z,10.03
2019-05-05T04:31:21.311Z,9.00
2019-05-05T04:33:48.358Z,7.03
2019-05-05T04:36:15.715Z,8.45
2019-05-05T04:38:43.960Z,6.95
2019-05-05T04:41:13.957Z,11.30
2019-05-05T04:43:44.148Z,6.53
2019-05-05T04:46:10.881Z,9.15
2019-05-05T04:48:44.165Z,8.40
2019-05-05T04:51:15.705Z,7.75
2019-05-05T04:54:01.089Z,7.62
2019-05-05T04:56:30.002Z,6.03
2019-05-05T04:58:56.862Z,6.95
2019-05-05T05:01:24.247Z,6.72
2019-05-05T05:04:07.919Z,7.95
2019-05-05T05:06:39.258Z,7.58
2019-05-05T05:09:07.087Z,5.40
2019-05-05T05:11:35.199Z,6.78
2019-05-05T05:14:03.862Z,9.13
2019-05-05T05:16:32.159Z,15.72
2019-05-05T05:18:58.796Z,8.37
2019-05-05T05:21:26.304Z,6.87
2019-05-05T05:23:53.624Z,6.97
2019-05-05T05:26:20.539Z,7.73
2019-05-05T05:28:47.175Z,6.70
2019-05-05T05:31:14.122Z,9.43
2019-05-05T05:33:41.169Z,5.23
2019-05-05T05:36:08.923Z,7.13
2019-05-05T05:38:35.565Z,4.80
2019-05-05T05:41:16.031Z,5.23
2019-05-05T05:44:03.450Z,3.53
2019-05-05T05:46:40.914Z,3.67
2019-05-05T05:49:24.310Z,3.70
2019-05-05T05:51:51.334Z,2.57
2019-05-05T05:54:18.282Z,5.27
2019-05-05T05:56:45.322Z,3.23
2019-05-05T05:59:14.058Z,9.00
2019-05-05T06:01:41.163Z,3.70
2019-05-05T06:04:08.882Z,5.30
2019-05-05T06:06:35.886Z,2.60
2019-05-05T06:09:04.260Z,3.97
2019-05-05T06:11:31.807Z,5.70
2019-05-05T06:13:58.435Z,7.37
2019-05-05T06:16:25.803Z,5.43
2019-05-05T06:18:54.222Z,3.03
2019-05-05T06:21:21.634Z,5.70
2019-05-05T06:23:48.990Z,3.30
2019-05-05T06:26:17.270Z,3.03
2019-05-05T06:28:44.854Z,3.50
2019-05-05T06:31:13.992Z,3.50
2019-05-05T06:33:41.075Z,2.00
2019-05-05T06:36:09.038Z,3.37
2019-05-05T06:38:35.654Z,3.07
2019-05-05T06:41:23.731Z,2.43
2019-05-05T06:44:10.223Z,3.20
2019-05-05T06:46:55.472Z,3.00
2019-05-05T06:49:23.794Z,6.03
2019-05-05T06:51:51.023Z,4.90
2019-05-05T06:54:17.988Z,4.17
2019-05-05T06:56:44.864Z,4.73
2019-05-05T06:59:13.685Z,8.90
2019-05-05T07:01:44.271Z,7.97
2019-05-05T07:04:11.283Z,3.73
2019-05-05T07:06:50.914Z,5.57
2019-05-05T07:09:07.418Z,3.70
2019-05-05T07:11:34.477Z,10.13
2019-05-05T07:14:04.790Z,8.23
2019-05-05T07:16:31.775Z,26.33
2019-05-05T07:18:58.420Z,8.43
2019-05-05T07:21:25.053Z,11.10
2019-05-05T07:23:53.766Z,9.63
2019-05-05T07:26:20.799Z,15.03
2019-05-05T07:28:47.420Z,12.03
2019-05-05T07:31:14.521Z,14.07
2019-05-05T07:33:43.642Z,16.37
2019-05-05T07:36:28.357Z,18.87
2019-05-05T07:38:55.200Z,28.30
2019-05-05T07:41:23.498Z,23.07
2019-05-05T07:43:50.307Z,17.63
2019-05-05T07:46:16.914Z,32.13
2019-05-05T07:48:44.212Z,13.43
2019-05-05T07:51:11.336Z,27.30
2019-05-05T07:53:37.952Z,22.57
2019-05-05T07:56:07.617Z,21.43
2019-05-05T07:58:34.601Z,27.73
2019-05-05T08:01:01.291Z,25.40
2019-05-05T08:03:28.883Z,23.07
2019-05-05T08:05:55.771Z,27.63
2019-05-05T08:08:24.444Z,23.87
2019-05-05T08:10:54.071Z,19.47
2019-05-05T08:13:21.262Z,23.67
2019-05-05T08:15:57.494Z,28.10
2019-05-05T08:18:37.378Z,21.23
2019-05-05T08:21:04.627Z,14.70
2019-05-05T08:23:51.544Z,26.10
2019-05-05T08:26:37.566Z,17.90
2019-05-05T08:29:24.022Z,21.10
2019-05-05T08:31:55.635Z,13.97
2019-05-05T08:34:24.456Z,26.17
2019-05-05T08:36:51.255Z,23.80
2019-05-05T08:39:21.301Z,21.23
2019-05-05T08:41:47.452Z,21.40
2019-05-05T08:44:17.887Z,14.03
2019-05-05T08:46:44.583Z,23.20
2019-05-05T08:49:13.721Z,18.10
2019-05-05T08:51:40.820Z,20.40
2019-05-05T08:54:08.132Z,24.70
2019-05-05T08:56:35.083Z,20.03
2019-05-05T08:59:03.658Z,14.07
2019-05-05T09:01:30.824Z,19.57
2019-05-05T09:03:58.355Z,19.10
2019-05-05T09:06:25.004Z,17.57
2019-05-05T09:08:51.866Z,21.33
2019-05-05T09:11:18.778Z,28.37
2019-05-05T09:13:45.782Z,14.10
2019-05-05T09:16:14.365Z,27.63
2019-05-05T09:18:57.619Z,21.13
2019-05-05T09:21:24.588Z,17.63
2019-05-05T09:23:59.991Z,14.60
2019-05-05T09:26:34.401Z,17.80
2019-05-05T09:29:24.310Z,17.77
2019-05-05T09:31:53.916Z,13.03
2019-05-05T09:34:21.099Z,19.70
2019-05-05T09:36:48.555Z,32.40
2019-05-05T09:39:15.495Z,19.43
2019-05-05T09:41:44.470Z,15.03
2019-05-05T09:44:13.484Z,18.83
2019-05-05T09:46:40.219Z,12.57
2019-05-05T09:49:08.594Z,14.03
2019-05-05T09:51:35.211Z,14.37
2019-05-05T09:54:13.776Z,16.53
2019-05-05T09:56:31.479Z,7.97
2019-05-05T09:58:58.948Z,14.30
2019-05-05T10:01:26.496Z,11.90
2019-05-05T10:03:55.824Z,9.63
2019-05-05T10:06:24.393Z,10.73
2019-05-05T10:08:53.835Z,9.23
2019-05-05T10:11:20.983Z,11.20
2019-05-05T10:13:49.739Z,10.47
2019-05-05T10:16:17.208Z,11.67
2019-05-05T10:18:44.928Z,16.37
2019-05-05T10:21:13.851Z,14.07
2019-05-05T10:23:43.703Z,8.07
2019-05-05T10:26:10.955Z,7.20
2019-05-05T10:28:39.275Z,10.03
2019-05-05T10:31:06.730Z,8.50
2019-05-05T10:33:36.595Z,9.90
2019-05-05T10:36:03.275Z,13.47
2019-05-05T10:38:30.535Z,7.60
2019-05-05T10:40:57.160Z,9.80
2019-05-05T10:43:24.630Z,7.93
2019-05-05T10:45:54.687Z,20.23
2019-05-05T10:48:23.592Z,11.83
2019-05-05T10:50:50.795Z,19.53
2019-05-05T10:53:18.176Z,10.43
2019-05-05T10:55:45.499Z,15.33
2019-05-05T10:58:13.767Z,17.10
2019-05-05T11:00:48.894Z,11.93
2019-05-05T11:03:15.822Z,12.53
2019-05-05T11:05:44.861Z,12.70
2019-05-05T11:08:13.653Z,12.50
2019-05-05T11:10:40.579Z,15.07
2019-05-05T11:13:09.034Z,13.73
2019-05-05T11:15:36.123Z,12.20
2019-05-05T11:18:04.002Z,14.60
2019-05-05T11:20:31.358Z,9.60
2019-05-05T11:22:58.020Z,11.00
2019-05-05T11:25:25.015Z,10.60
2019-05-05T11:27:54.138Z,15.30
2019-05-05T11:30:33.890Z,17.07
2019-05-05T11:33:26.807Z,14.20
2019-05-05T11:36:00.315Z,16.40
2019-05-05T11:38:27.043Z,18.10
2019-05-05T11:40:54.654Z,10.27
2019-05-05T11:43:21.724Z,14.73
2019-05-05T11:45:48.484Z,10.93
2019-05-05T11:48:17.004Z,15.47
2019-05-05T11:50:43.846Z,10.10
2019-05-05T11:53:10.547Z,7.77
2019-05-05T11:55:37.187Z,11.57
2019-05-05T11:58:03.847Z,12.13
2019-05-05T12:00:31.052Z,13.00
2019-05-05T12:02:57.775Z,17.47
2019-05-05T12:05:24.481Z,12.23
2019-05-05T12:07:54.130Z,13.10
2019-05-05T12:10:55.352Z,10.63
2019-05-05T12:13:22.188Z,8.60
2019-05-05T12:15:54.159Z,12.30
2019-05-05T12:18:23.697Z,8.97
2019-05-05T12:20:50.607Z,12.17
2019-05-05T12:23:17.233Z,13.87
2019-05-05T12:25:57.435Z,17.63
2019-05-05T12:28:31.634Z,7.93
2019-05-05T12:31:00.013Z,8.03
2019-05-05T12:33:26.710Z,17.00
2019-05-05T12:35:53.959Z,12.13
2019-05-05T12:38:21.016Z,20.63
2019-05-05T12:40:48.067Z,16.10
2019-05-05T12:43:14.718Z,10.33
2019-05-05T12:45:44.851Z,14.20
2019-05-05T12:48:15.990Z,13.33
2019-05-05T12:50:44.291Z,16.37
2019-05-05T12:53:11.138Z,6.03
2019-05-05T12:55:41.506Z,14.13
2019-05-05T12:58:08.958Z,4.33
2019-05-05T13:00:36.920Z,9.10
2019-05-05T13:03:04.440Z,8.80
2019-05-05T13:05:31.384Z,10.93
2019-05-05T13:07:58.312Z,11.10
2019-05-05T13:10:25.620Z,11.80
2019-05-05T13:12:54.302Z,7.97
2019-05-05T13:15:21.664Z,12.40
2019-05-05T13:17:48.441Z,17.07
2019-05-05T13:20:44.401Z,5.77
2019-05-05T13:23:39.556Z,6.53
2019-05-05T13:26:15.384Z,11.53
2019-05-05T13:28:43.722Z,10.30
2019-05-05T13:31:13.865Z,14.03
2019-05-05T13:33:40.556Z,7.50
2019-05-05T13:36:07.871Z,13.40
2019-05-05T13:38:34.923Z,11.83
2019-05-05T13:41:03.612Z,16.80
2019-05-05T13:43:30.332Z,16.73
2019-05-05T13:46:08.284Z,8.43
2019-05-05T13:48:35.011Z,8.40
2019-05-05T13:51:04.281Z,15.13
2019-05-05T13:53:31.394Z,7.30
2019-05-05T13:56:08.901Z,8.50
2019-05-05T13:58:27.527Z,6.47
2019-05-05T14:00:54.665Z,7.80
2019-05-05T14:03:23.525Z,10.27
2019-05-05T14:05:50.779Z,7.27
2019-05-05T14:08:17.428Z,10.57
2019-05-05T14:10:45.166Z,7.50
2019-05-05T14:13:11.790Z,7.00
2019-05-05T14:15:40.313Z,11.33
2019-05-05T14:18:07.751Z,9.83
2019-05-05T14:20:34.625Z,8.73
2019-05-05T14:23:03.725Z,13.60
2019-05-05T14:25:30.785Z,21.80
2019-05-05T14:27:57.601Z,10.20
2019-05-05T14:30:31.523Z,9.67
2019-05-05T14:33:01.100Z,6.10
2019-05-05T14:35:36.939Z,8.33
2019-05-05T14:38:07.315Z,17.97
2019-05-05T14:40:34.831Z,7.33
2019-05-05T14:43:01.905Z,7.27
2019-05-05T14:45:28.751Z,8.70
2019-05-05T14:47:56.072Z,9.43
2019-05-05T14:50:24.217Z,13.00
2019-05-05T14:52:53.509Z,10.70
2019-05-05T14:55:22.433Z,12.77
2019-05-05T14:57:49.351Z,6.73
2019-05-05T15:00:19.676Z,10.40
2019-05-05T15:02:47.669Z,13.37
2019-05-05T15:05:33.833Z,9.73
2019-05-05T15:08:26.148Z,9.53
2019-05-05T15:11:01.106Z,13.30
2019-05-05T15:13:27.827Z,10.53
2019-05-05T15:15:55.678Z,11.17
2019-05-05T15:18:24.134Z,10.23
2019-05-05T15:20:51.874Z,8.40
2019-05-05T15:23:19.037Z,6.13
2019-05-05T15:25:46.004Z,12.67
2019-05-05T15:28:13.806Z,12.80
2019-05-05T15:30:40.559Z,10.20
2019-05-05T15:33:09.787Z,7.87
2019-05-05T15:35:36.835Z,12.20
2019-05-05T15:38:04.538Z,12.60
2019-05-05T15:40:33.759Z,8.20
2019-05-05T15:43:03.702Z,12.50
2019-05-05T15:45:30.890Z,15.80
2019-05-05T15:47:57.988Z,7.43
2019-05-05T15:50:25.821Z,5.53
2019-05-05T15:52:54.461Z,12.37
2019-05-05T15:55:24.424Z,9.17
2019-05-05T15:57:50.967Z,9.77
2019-05-05T16:00:18.668Z,15.70
2019-05-05T16:02:45.330Z,14.97
2019-05-05T16:05:13.777Z,9.43
2019-05-05T16:07:40.650Z,10.77
2019-05-05T16:10:07.591Z,8.43
2019-05-05T16:12:39.207Z,10.50
2019-05-05T16:15:24.181Z,10.00
2019-05-05T16:18:10.455Z,9.07
2019-05-05T16:20:41.567Z,5.87
2019-05-05T16:23:14.361Z,6.83
2019-05-05T16:25:41.799Z,6.93
2019-05-05T16:28:08.975Z,9.70
2019-05-05T16:30:35.979Z,10.17
2019-05-05T16:33:04.247Z,7.27
2019-05-05T16:35:31.430Z,6.97
2019-05-05T16:37:58.046Z,7.87
2019-05-05T16:40:25.895Z,13.70
2019-05-05T16:42:54.273Z,10.90
2019-05-05T16:45:21.639Z,5.90
2019-05-05T16:47:48.451Z,5.77
2019-05-05T16:50:15.223Z,8.80
2019-05-05T16:52:57.239Z,7.47
2019-05-05T16:55:30.214Z,6.47
2019-05-05T16:57:57.863Z,9.97
2019-05-05T17:00:25.863Z,7.47
2019-05-05T17:02:53.691Z,6.03
2019-05-05T17:05:20.438Z,7.37
2019-05-05T17:07:47.392Z,6.97
2019-05-05T17:10:15.637Z,8.73
2019-05-05T17:12:44.311Z,8.67
2019-05-05T17:15:37.003Z,8.80
2019-05-05T17:18:35.980Z,9.83
2019-05-05T17:21:06.321Z,8.80
2019-05-05T17:23:34.179Z,6.50
2019-05-05T17:26:01.470Z,10.00
2019-05-05T17:28:28.910Z,10.90
2019-05-05T17:30:55.946Z,14.33
2019-05-05T17:33:24.158Z,6.40
2019-05-05T17:35:53.819Z,13.27
2019-05-05T17:38:20.887Z,9.87
2019-05-05T17:41:14.847Z,6.20
2019-05-05T17:44:03.138Z,9.60
2019-05-05T17:46:36.401Z,14.00
2019-05-05T17:49:29.960Z,13.70
2019-05-05T17:52:03.563Z,9.43
2019-05-05T17:54:40.019Z,9.20
2019-05-05T17:57:07.599Z,9.83
2019-05-05T17:59:35.057Z,11.53
2019-05-05T18:02:02.204Z,10.70
2019-05-05T18:04:29.182Z,6.17
2019-05-05T18:07:09.847Z,11.03
2019-05-05T18:09:54.916Z,8.40
2019-05-05T18:12:41.349Z,5.87
2019-05-05T18:15:13.616Z,5.23
2019-05-05T18:17:43.355Z,4.63
2019-05-05T18:20:10.476Z,7.30
2019-05-05T18:22:38.391Z,6.63
2019-05-05T18:25:05.831Z,8.73
2019-05-05T18:27:34.346Z,9.50
2019-05-05T18:30:03.965Z,9.93
2019-05-05T18:32:31.179Z,5.80
2019-05-05T18:34:58.631Z,4.33
2019-05-05T18:37:25.295Z,9.73
2019-05-05T18:39:54.452Z,11.10
2019-05-05T18:42:24.565Z,7.67
2019-05-05T18:44:56.031Z,6.10
2019-05-05T18:47:25.120Z,4.43
2019-05-05T18:49:54.004Z,10.53
2019-05-05T18:52:21.675Z,10.03
2019-05-05T18:54:49.232Z,14.53
2019-05-05T18:57:17.338Z,7.40
2019-05-05T18:59:44.935Z,10.47
2019-05-05T19:02:47.097Z,6.50
2019-05-05T19:05:44.055Z,8.70
2019-05-05T19:08:15.836Z,5.70
2019-05-05T19:10:44.114Z,6.13
2019-05-05T19:13:11.160Z,4.80
2019-05-05T19:15:37.979Z,8.80
2019-05-05T19:18:06.672Z,7.70
2019-05-05T19:20:59.400Z,7.50
2019-05-05T19:23:26.382Z,4.10
2019-05-05T19:25:55.841Z,5.70
2019-05-05T19:28:23.506Z,10.50
2019-05-05T19:30:50.451Z,17.63
2019-05-05T19:33:17.095Z,10.93
2019-05-05T19:35:47.127Z,9.40
2019-05-05T19:38:15.590Z,7.00
2019-05-05T19:40:41.193Z,11.60
2019-05-05T19:43:07.917Z,7.70
2019-05-05T19:45:35.808Z,9.80
2019-05-05T19:48:05.530Z,10.43
2019-05-05T19:50:39.759Z,9.03
2019-05-05T19:53:21.645Z,6.83
2019-05-05T19:55:48.650Z,10.57
2019-05-05T19:58:17.794Z,9.85
2019-05-05T20:00:44.412Z,7.90
2019-05-05T20:03:11.067Z,8.40
2019-05-05T20:05:38.239Z,8.47
2019-05-05T20:08:04.976Z,14.43
2019-05-05T20:10:31.659Z,10.00
2019-05-05T20:12:59.788Z,6.53
2019-05-05T20:15:35.844Z,9.17
2019-05-05T20:18:04.641Z,9.33
2019-05-05T20:20:33.126Z,8.40
2019-05-05T20:23:00.375Z,9.83
2019-05-05T20:25:27.725Z,9.17
2019-05-05T20:27:56.042Z,7.47
2019-05-05T20:30:24.699Z,5.77
2019-05-05T20:33:00.043Z,16.87
2019-05-05T20:35:55.283Z,12.73
2019-05-05T20:38:33.852Z,6.00
2019-05-05T20:41:17.187Z,9.80
2019-05-05T20:43:44.815Z,9.30
2019-05-05T20:46:12.228Z,8.17
2019-05-05T20:48:41.196Z,8.67
2019-05-05T20:51:08.341Z,11.87
2019-05-05T20:53:35.587Z,6.30
2019-05-05T20:56:04.341Z,6.00
2019-05-05T20:58:33.658Z,8.20
2019-05-05T21:01:04.498Z,10.77
2019-05-05T21:03:31.553Z,9.43
2019-05-05T21:05:59.130Z,10.93
2019-05-05T21:08:27.936Z,11.93
2019-05-05T21:10:55.263Z,11.97
2019-05-05T21:13:22.307Z,8.97
2019-05-05T21:15:50.305Z,9.30
2019-05-05T21:18:17.726Z,6.03
2019-05-05T21:20:44.452Z,6.27
2019-05-05T21:23:40.955Z,8.90
2019-05-05T21:26:17.171Z,15.33
2019-05-05T21:28:44.554Z,8.10
2019-05-05T21:31:14.500Z,7.03
2019-05-05T21:33:41.105Z,9.17
2019-05-05T21:36:08.583Z,9.37
2019-05-05T21:38:35.721Z,6.93
2019-05-05T21:41:04.316Z,5.87
2019-05-05T21:43:32.261Z,14.20
2019-05-05T21:46:00.086Z,6.07
2019-05-05T21:48:26.735Z,9.17
2019-05-05T21:51:06.111Z,10.97
2019-05-05T21:53:58.245Z,11.80
2019-05-05T21:56:38.855Z,19.33
2019-05-05T21:59:06.462Z,13.27
2019-05-05T22:01:39.678Z,7.53
2019-05-05T22:04:04.325Z,16.90
2019-05-05T22:06:31.311Z,9.07
2019-05-05T22:09:00.473Z,7.70
2019-05-05T22:11:27.493Z,8.00
2019-05-05T22:13:54.246Z,10.37
2019-05-05T22:16:21.295Z,10.10
2019-05-05T22:18:47.959Z,16.07
2019-05-05T22:21:36.865Z,8.83
2019-05-05T22:24:23.155Z,6.80
2019-05-05T22:26:50.344Z,6.23
2019-05-05T22:29:18.008Z,11.00
2019-05-05T22:31:45.568Z,5.77
2019-05-05T22:34:14.401Z,8.78
2019-05-05T22:36:42.017Z,15.23
2019-05-05T22:39:09.881Z,8.80
2019-05-05T22:41:36.702Z,16.97
2019-05-05T22:44:04.475Z,10.77
2019-05-05T22:46:31.239Z,10.57
2019-05-05T22:48:58.477Z,7.53
2019-05-05T22:51:25.736Z,9.40
2019-05-05T22:53:54.654Z,11.17
2019-05-05T22:56:24.009Z,11.30
2019-05-05T22:58:50.868Z,10.77
2019-05-05T23:01:17.486Z,11.60
2019-05-05T23:03:58.787Z,16.77
2019-05-05T23:06:26.554Z,8.00
2019-05-05T23:08:54.619Z,10.57
2019-05-05T23:11:23.839Z,8.50
2019-05-05T23:13:54.365Z,7.00
2019-05-05T23:16:34.935Z,8.47
2019-05-05T23:19:03.445Z,13.03
2019-05-05T23:21:39.580Z,8.43
2019-05-05T23:24:28.660Z,12.43
2019-05-05T23:26:57.187Z,12.83
2019-05-05T23:29:24.276Z,7.63
2019-05-05T23:31:53.850Z,8.20
2019-05-05T23:34:20.641Z,11.70
2019-05-05T23:36:47.354Z,13.43
2019-05-05T23:39:15.175Z,8.47
2019-05-05T23:41:41.744Z,8.90
2019-05-05T23:44:08.794Z,10.70
2019-05-05T23:46:35.556Z,10.33
2019-05-05T23:49:04.127Z,9.50
2019-05-05T23:51:30.684Z,6.30
2019-05-05T23:53:57.708Z,8.53
2019-05-05T23:56:24.447Z,7.37
2019-05-05T23:58:54.938Z,7.17
